createdAt,value
2022-07-26T00:00:14.261Z,94468.63
2022-07-26T00:01:11.108Z,94509.13
2022-07-26T00:02:07.993Z,94515.47
2022-07-26T00:03:04.806Z,94426.97
2022-07-26T00:04:02.284Z,94491.63
2022-07-26T00:04:58.973Z,94499.22
2022-07-26T00:05:55.844Z,94518.16
2022-07-26T00:06:52.635Z,94514.31
2022-07-26T00:07:49.389Z,94513.22
2022-07-26T00:08:47.087Z,94488.22
2022-07-26T00:09:48.064Z,94504.94
2022-07-26T00:10:49.590Z,94420.94
2022-07-26T00:11:46.557Z,94506.38
2022-07-26T00:12:43.288Z,94512.03
2022-07-26T00:13:40.332Z,94456.75
2022-07-26T00:14:37.219Z,94482.06
2022-07-26T00:15:34.033Z,94500.00
2022-07-26T00:16:30.867Z,94517.22
2022-07-26T00:17:27.646Z,94494.38
2022-07-26T00:18:25.144Z,94512.97
2022-07-26T00:19:22.018Z,94501.38
2022-07-26T00:20:18.758Z,94491.69
2022-07-26T00:21:15.690Z,94512.47
2022-07-26T00:22:31.051Z,94491.41
2022-07-26T00:23:29.397Z,94455.19
2022-07-26T00:24:26.145Z,94504.94
2022-07-26T00:25:23.571Z,94495.59
2022-07-26T00:26:20.352Z,94496.25
2022-07-26T00:27:17.100Z,94507.16
2022-07-26T00:28:14.168Z,94493.06
2022-07-26T00:29:11.915Z,94417.53
2022-07-26T00:30:10.540Z,94509.69
2022-07-26T00:31:08.930Z,94501.09
2022-07-26T00:32:06.196Z,94480.41
2022-07-26T00:33:02.936Z,94488.28
2022-07-26T00:33:59.708Z,94464.13
2022-07-26T00:34:56.434Z,94487.06
2022-07-26T00:35:53.195Z,94492.97
2022-07-26T00:36:49.942Z,94458.72
2022-07-26T00:37:47.047Z,94487.72
2022-07-26T00:38:43.812Z,94479.47
2022-07-26T00:39:40.588Z,94483.44
2022-07-26T00:40:37.452Z,94503.84
2022-07-26T00:41:34.263Z,94488.00
2022-07-26T00:42:31.234Z,94472.22
2022-07-26T00:43:28.010Z,94484.28
2022-07-26T00:44:24.818Z,94464.56
2022-07-26T00:45:21.877Z,94467.97
2022-07-26T00:46:18.614Z,94491.06
2022-07-26T00:47:16.230Z,94463.19
2022-07-26T00:48:12.941Z,94492.00
2022-07-26T00:49:11.873Z,94453.16
2022-07-26T00:50:12.825Z,94492.47
2022-07-26T00:51:09.585Z,94486.03
2022-07-26T00:52:06.841Z,94487.41
2022-07-26T00:53:03.892Z,94436.09
2022-07-26T00:54:00.767Z,94490.03
2022-07-26T00:54:58.213Z,94404.81
2022-07-26T00:55:54.967Z,94487.56
2022-07-26T00:56:55.215Z,94491.28
2022-07-26T00:57:52.206Z,94483.25
2022-07-26T00:58:49.048Z,94494.50
2022-07-26T00:59:45.746Z,94493.56
2022-07-26T01:00:42.718Z,94455.88
2022-07-26T01:01:39.591Z,94478.28
2022-07-26T01:02:36.644Z,94487.13
2022-07-26T01:03:39.544Z,94493.72
2022-07-26T01:04:37.162Z,94447.06
2022-07-26T01:05:35.442Z,94465.16
2022-07-26T01:06:32.509Z,94491.34
2022-07-26T01:07:29.893Z,94425.63
2022-07-26T01:08:26.917Z,94456.03
2022-07-26T01:09:23.767Z,94478.50
2022-07-26T01:10:20.631Z,94465.53
2022-07-26T01:11:17.394Z,94454.22
2022-07-26T01:12:14.147Z,94459.22
2022-07-26T01:13:10.888Z,94495.75
2022-07-26T01:14:07.969Z,94369.38
2022-07-26T01:15:06.032Z,94495.53
2022-07-26T01:16:03.638Z,94464.50
2022-07-26T01:17:00.394Z,94492.97
2022-07-26T01:17:57.178Z,94379.47
2022-07-26T01:18:53.908Z,94491.31
2022-07-26T01:19:50.710Z,94478.66
2022-07-26T01:20:50.313Z,94454.59
2022-07-26T01:21:47.156Z,94438.84
2022-07-26T01:22:44.012Z,94478.16
2022-07-26T01:23:41.218Z,94490.31
2022-07-26T01:24:38.129Z,94475.22
2022-07-26T01:25:43.415Z,94397.47
2022-07-26T01:26:40.568Z,94496.13
2022-07-26T01:27:39.674Z,94427.59
2022-07-26T01:28:38.372Z,94503.59
2022-07-26T01:29:36.178Z,94394.75
2022-07-26T01:30:33.280Z,94493.00
2022-07-26T01:31:30.215Z,94477.06
2022-07-26T01:32:27.052Z,94482.97
2022-07-26T01:33:28.023Z,94479.09
2022-07-26T01:34:24.745Z,94480.91
2022-07-26T01:35:21.538Z,94481.06
2022-07-26T01:36:19.370Z,94472.44
2022-07-26T01:37:16.089Z,94490.00
2022-07-26T01:38:14.411Z,94479.47
2022-07-26T01:39:11.462Z,94442.59
2022-07-26T01:40:09.154Z,94480.13
2022-07-26T01:41:06.468Z,94458.66
2022-07-26T01:42:03.473Z,94351.63
2022-07-26T01:43:00.234Z,94473.75
2022-07-26T01:43:57.029Z,94468.84
2022-07-26T01:44:53.849Z,94472.50
2022-07-26T01:45:51.082Z,94476.31
2022-07-26T01:46:47.828Z,94469.44
2022-07-26T01:47:49.967Z,94355.38
2022-07-26T01:48:46.775Z,94473.88
2022-07-26T01:49:43.552Z,94500.63
2022-07-26T01:50:40.438Z,94485.84
2022-07-26T01:51:37.200Z,94491.47
2022-07-26T01:52:35.586Z,94449.09
2022-07-26T01:53:32.466Z,94500.25
2022-07-26T01:54:29.533Z,94444.34
2022-07-26T01:55:26.377Z,94471.38
2022-07-26T01:56:23.167Z,94493.59
2022-07-26T01:57:19.933Z,94478.38
2022-07-26T01:58:16.807Z,94481.72
2022-07-26T01:59:13.616Z,94438.88
2022-07-26T02:00:10.895Z,94482.94
2022-07-26T02:01:08.646Z,94474.06
2022-07-26T02:02:05.552Z,94466.84
2022-07-26T02:03:02.628Z,94385.50
2022-07-26T02:03:59.429Z,94458.59
2022-07-26T02:04:58.891Z,94489.59
2022-07-26T02:05:55.659Z,94459.34
2022-07-26T02:06:52.369Z,94499.19
2022-07-26T02:07:50.826Z,94494.38
2022-07-26T02:08:47.721Z,94471.97
2022-07-26T02:09:44.589Z,94486.97
2022-07-26T02:10:59.554Z,94492.59
2022-07-26T02:11:56.506Z,94465.81
2022-07-26T02:12:53.240Z,94455.66
2022-07-26T02:13:53.047Z,94492.31
2022-07-26T02:14:51.291Z,94458.66
2022-07-26T02:15:48.799Z,94502.38
2022-07-26T02:16:45.573Z,94393.94
2022-07-26T02:17:43.359Z,94500.34
2022-07-26T02:18:43.062Z,94500.75
2022-07-26T02:19:40.783Z,94473.66
2022-07-26T02:20:37.919Z,94400.09
2022-07-26T02:21:34.730Z,94502.78
2022-07-26T02:22:31.478Z,94499.88
2022-07-26T02:23:28.913Z,94476.22
2022-07-26T02:24:29.037Z,94508.50
2022-07-26T02:25:25.927Z,94506.28
2022-07-26T02:26:22.668Z,94498.81
2022-07-26T02:27:19.422Z,94493.84
2022-07-26T02:28:17.134Z,94475.69
2022-07-26T02:29:13.876Z,94489.78
2022-07-26T02:30:11.386Z,94441.19
2022-07-26T02:31:08.240Z,94496.41
2022-07-26T02:32:05.643Z,94504.59
2022-07-26T02:33:02.422Z,94500.47
2022-07-26T02:33:59.195Z,94496.06
2022-07-26T02:34:55.973Z,94499.25
2022-07-26T02:35:52.752Z,94500.97
2022-07-26T02:36:50.026Z,94492.38
2022-07-26T02:37:46.934Z,94490.56
2022-07-26T02:38:43.660Z,94500.47
2022-07-26T02:39:40.397Z,94490.00
2022-07-26T02:40:39.054Z,94373.38
2022-07-26T02:41:35.811Z,94495.03
2022-07-26T02:42:32.877Z,94485.03
2022-07-26T02:43:31.671Z,94500.63
2022-07-26T02:44:29.427Z,94496.84
2022-07-26T02:45:26.349Z,94508.69
2022-07-26T02:46:23.101Z,94516.78
2022-07-26T02:47:20.604Z,94502.56
2022-07-26T02:48:17.314Z,94510.28
2022-07-26T02:49:14.207Z,94494.53
2022-07-26T02:50:11.034Z,94507.56
2022-07-26T02:51:08.250Z,94511.72
2022-07-26T02:52:05.400Z,94493.78
2022-07-26T02:53:02.453Z,94519.69
2022-07-26T02:53:59.219Z,94513.56
2022-07-26T02:54:55.997Z,94502.38
2022-07-26T02:55:52.750Z,94495.00
2022-07-26T02:56:49.453Z,94508.53
2022-07-26T02:57:47.066Z,94473.53
2022-07-26T02:58:43.843Z,94485.47
2022-07-26T02:59:40.650Z,94507.78
2022-07-26T03:00:37.393Z,94500.38
2022-07-26T03:01:39.680Z,94508.41
2022-07-26T03:02:36.992Z,94462.25
2022-07-26T03:03:33.789Z,94383.25
2022-07-26T03:04:33.424Z,94517.44
2022-07-26T03:05:30.170Z,94472.53
2022-07-26T03:06:27.398Z,94506.50
2022-07-26T03:07:24.144Z,94480.41
2022-07-26T03:08:20.952Z,94393.47
2022-07-26T03:09:17.708Z,94440.50
2022-07-26T03:10:14.771Z,94482.94
2022-07-26T03:11:12.239Z,94508.66
2022-07-26T03:12:09.214Z,94510.81
2022-07-26T03:13:05.953Z,94442.00
2022-07-26T03:14:02.855Z,94513.50
2022-07-26T03:15:00.788Z,94503.09
2022-07-26T03:15:57.547Z,94510.25
2022-07-26T03:16:54.319Z,94514.78
2022-07-26T03:17:51.264Z,94441.19
2022-07-26T03:18:48.042Z,94482.44
2022-07-26T03:19:45.166Z,94523.34
2022-07-26T03:20:42.087Z,94514.78
2022-07-26T03:21:38.926Z,94522.56
2022-07-26T03:22:35.659Z,94385.44
2022-07-26T03:23:33.579Z,94514.75
2022-07-26T03:24:30.551Z,94522.94
2022-07-26T03:25:27.305Z,94491.81
2022-07-26T03:26:24.029Z,94516.53
2022-07-26T03:27:20.752Z,94514.59
2022-07-26T03:28:19.704Z,94489.34
2022-07-26T03:29:16.582Z,94519.50
2022-07-26T03:30:13.987Z,94499.88
2022-07-26T03:31:14.092Z,94502.97
2022-07-26T03:32:10.963Z,94515.38
2022-07-26T03:33:07.726Z,94519.38
2022-07-26T03:34:04.523Z,94518.88
2022-07-26T03:35:01.498Z,94522.13
2022-07-26T03:35:58.261Z,94524.81
2022-07-26T03:36:54.963Z,94525.34
2022-07-26T03:37:52.609Z,94524.63
2022-07-26T03:38:49.335Z,94522.75
2022-07-26T03:39:46.127Z,94414.25
2022-07-26T03:40:42.929Z,94523.59
2022-07-26T03:41:39.685Z,94522.22
2022-07-26T03:42:36.482Z,94475.78
2022-07-26T03:43:36.440Z,94472.41
2022-07-26T03:44:33.397Z,94482.25
2022-07-26T03:45:30.100Z,94504.31
2022-07-26T03:46:26.993Z,94525.25
2022-07-26T03:47:23.718Z,94524.19
2022-07-26T03:48:20.563Z,94392.97
2022-07-26T03:49:17.553Z,94523.38
2022-07-26T03:50:14.434Z,94523.03
2022-07-26T03:51:11.183Z,94519.84
2022-07-26T03:52:07.947Z,94412.59
2022-07-26T03:53:05.550Z,94509.22
2022-07-26T03:54:02.305Z,94510.13
2022-07-26T03:54:59.105Z,94385.47
2022-07-26T03:56:14.899Z,94515.28
2022-07-26T03:57:11.945Z,94518.13
2022-07-26T03:58:09.004Z,94509.38
2022-07-26T03:59:08.642Z,94455.53
2022-07-26T04:00:06.135Z,94527.34
2022-07-26T04:01:02.896Z,94536.41
2022-07-26T04:01:59.834Z,94528.81
2022-07-26T04:02:56.728Z,94528.47
2022-07-26T04:03:54.047Z,94530.53
2022-07-26T04:04:50.872Z,94396.56
2022-07-26T04:05:49.024Z,94500.03
2022-07-26T04:06:47.815Z,94509.81
2022-07-26T04:07:47.096Z,94512.09
2022-07-26T04:08:50.395Z,94509.03
2022-07-26T04:09:47.125Z,94506.72
2022-07-26T04:10:51.153Z,94460.00
2022-07-26T04:11:48.682Z,94512.34
2022-07-26T04:12:45.408Z,94513.59
2022-07-26T04:13:42.272Z,94506.34
2022-07-26T04:14:42.515Z,94482.22
2022-07-26T04:15:39.496Z,94480.13
2022-07-26T04:16:41.439Z,94528.50
2022-07-26T04:17:41.063Z,94510.56
2022-07-26T04:18:38.307Z,94519.03
2022-07-26T04:19:37.566Z,94386.50
2022-07-26T04:20:36.715Z,94513.13
2022-07-26T04:21:34.231Z,94516.19
2022-07-26T04:22:31.790Z,94504.44
2022-07-26T04:23:28.639Z,94510.00
2022-07-26T04:24:25.791Z,94504.56
2022-07-26T04:25:22.722Z,94424.47
2022-07-26T04:26:22.971Z,94514.63
2022-07-26T04:27:19.710Z,94514.34
2022-07-26T04:28:16.466Z,94514.56
2022-07-26T04:29:15.129Z,94521.00
2022-07-26T04:30:15.177Z,94500.00
2022-07-26T04:31:13.018Z,94505.31
2022-07-26T04:32:09.804Z,94477.00
2022-07-26T04:33:07.242Z,94507.38
2022-07-26T04:34:04.183Z,94397.41
2022-07-26T04:35:01.097Z,94357.69
2022-07-26T04:35:57.838Z,94481.47
2022-07-26T04:36:54.589Z,94469.03
2022-07-26T04:37:51.354Z,94508.41
2022-07-26T04:38:48.097Z,94445.47
2022-07-26T04:39:45.035Z,94478.63
2022-07-26T04:40:41.875Z,94499.59
2022-07-26T04:41:38.851Z,94510.88
2022-07-26T04:42:36.123Z,94507.09
2022-07-26T04:43:33.052Z,94517.00
2022-07-26T04:44:29.831Z,94500.22
2022-07-26T04:45:26.746Z,94365.34
2022-07-26T04:46:25.185Z,94389.25
2022-07-26T04:47:22.013Z,94507.44
2022-07-26T04:48:19.210Z,94527.91
2022-07-26T04:49:16.226Z,94472.56
2022-07-26T04:50:13.357Z,94509.25
2022-07-26T04:51:12.147Z,94501.75
2022-07-26T04:52:08.887Z,94489.78
2022-07-26T04:53:05.662Z,94518.47
2022-07-26T04:54:02.383Z,94516.50
2022-07-26T04:54:59.142Z,94521.28
2022-07-26T04:55:55.878Z,94523.66
2022-07-26T04:56:52.724Z,94528.44
2022-07-26T04:57:50.178Z,94513.88
2022-07-26T04:58:46.918Z,94511.50
2022-07-26T04:59:50.412Z,94500.88
2022-07-26T05:01:11.138Z,94491.03
2022-07-26T05:02:08.288Z,94490.44
2022-07-26T05:03:05.403Z,94468.13
2022-07-26T05:04:02.210Z,94471.28
2022-07-26T05:04:59.006Z,94472.78
2022-07-26T05:05:55.883Z,94509.53
2022-07-26T05:06:52.613Z,94517.47
2022-07-26T05:07:53.819Z,94488.09
2022-07-26T05:08:50.657Z,94524.19
2022-07-26T05:09:47.535Z,94490.53
2022-07-26T05:10:45.226Z,94509.63
2022-07-26T05:11:41.975Z,94517.34
2022-07-26T05:12:38.691Z,94509.50
2022-07-26T05:13:35.461Z,94508.88
2022-07-26T05:14:32.271Z,94397.09
2022-07-26T05:15:35.495Z,94492.72
2022-07-26T05:16:32.673Z,94503.38
2022-07-26T05:17:29.434Z,94505.41
2022-07-26T05:18:27.509Z,94481.13
2022-07-26T05:19:26.134Z,94493.75
2022-07-26T05:20:24.291Z,94488.03
2022-07-26T05:21:21.052Z,94505.13
2022-07-26T05:22:17.792Z,94509.78
2022-07-26T05:23:16.746Z,94521.03
2022-07-26T05:24:13.543Z,94503.81
2022-07-26T05:25:10.825Z,94477.19
2022-07-26T05:26:07.572Z,94518.44
2022-07-26T05:27:04.445Z,94433.75
2022-07-26T05:28:01.276Z,94485.84
2022-07-26T05:28:59.147Z,94457.13
2022-07-26T05:29:56.129Z,94491.78
2022-07-26T05:30:52.906Z,94513.75
2022-07-26T05:31:50.249Z,94480.44
2022-07-26T05:32:47.539Z,94513.00
2022-07-26T05:33:44.286Z,94471.47
2022-07-26T05:34:41.024Z,94487.50
2022-07-26T05:35:37.754Z,94509.66
2022-07-26T05:36:35.192Z,94491.22
2022-07-26T05:37:31.967Z,94497.38
2022-07-26T05:38:28.704Z,94514.06
2022-07-26T05:39:25.506Z,94506.28
2022-07-26T05:40:22.557Z,94509.69
2022-07-26T05:41:19.319Z,94472.25
2022-07-26T05:42:16.083Z,94501.13
2022-07-26T05:43:12.856Z,94502.31
2022-07-26T05:44:27.942Z,94496.31
2022-07-26T05:45:27.258Z,94496.94
2022-07-26T05:46:24.157Z,94497.22
2022-07-26T05:47:21.190Z,94354.53
2022-07-26T05:48:18.055Z,94504.59
2022-07-26T05:49:16.795Z,94494.16
2022-07-26T05:50:13.566Z,94500.78
2022-07-26T05:51:11.471Z,94497.22
2022-07-26T05:52:09.381Z,94469.91
2022-07-26T05:53:06.235Z,94415.00
2022-07-26T05:54:04.774Z,94510.03
2022-07-26T05:55:02.033Z,94494.44
2022-07-26T05:56:01.437Z,94502.97
2022-07-26T05:56:58.178Z,94481.34
2022-07-26T05:57:54.920Z,94442.97
2022-07-26T05:58:51.699Z,94423.75
2022-07-26T05:59:48.550Z,94457.09
2022-07-26T06:00:48.517Z,94445.97
2022-07-26T06:01:45.518Z,94492.44
2022-07-26T06:02:42.411Z,94492.81
2022-07-26T06:03:39.190Z,94489.41
2022-07-26T06:04:36.539Z,94473.41
2022-07-26T06:05:33.340Z,94398.72
2022-07-26T06:06:30.440Z,94441.41
2022-07-26T06:07:27.211Z,94476.81
2022-07-26T06:08:27.131Z,94478.28
2022-07-26T06:09:24.883Z,94488.78
2022-07-26T06:10:21.674Z,94445.25
2022-07-26T06:11:18.847Z,94440.72
2022-07-26T06:12:15.970Z,94470.88
2022-07-26T06:13:12.934Z,94483.81
2022-07-26T06:14:12.228Z,94481.00
2022-07-26T06:15:15.556Z,94433.22
2022-07-26T06:16:12.663Z,94485.91
2022-07-26T06:17:09.744Z,94459.50
2022-07-26T06:18:07.127Z,94473.56
2022-07-26T06:19:03.959Z,94471.97
2022-07-26T06:20:00.810Z,94459.13
2022-07-26T06:21:02.192Z,94421.19
2022-07-26T06:21:59.430Z,94468.03
2022-07-26T06:22:58.274Z,94461.06
2022-07-26T06:23:54.997Z,94480.53
2022-07-26T06:24:52.166Z,94375.53
2022-07-26T06:25:48.920Z,94480.03
2022-07-26T06:26:46.734Z,94474.94
2022-07-26T06:27:43.487Z,94445.97
2022-07-26T06:28:40.291Z,94461.63
2022-07-26T06:29:37.005Z,94475.81
2022-07-26T06:30:35.016Z,94454.09
2022-07-26T06:31:31.941Z,94480.53
2022-07-26T06:32:28.719Z,94449.50
2022-07-26T06:33:25.462Z,94463.97
2022-07-26T06:34:22.249Z,94473.75
2022-07-26T06:35:19.097Z,94473.47
2022-07-26T06:36:16.020Z,94467.88
2022-07-26T06:37:12.754Z,94465.53
2022-07-26T06:38:09.568Z,94350.25
2022-07-26T06:39:06.346Z,94458.47
2022-07-26T06:40:03.666Z,94335.88
2022-07-26T06:41:00.512Z,94460.47
2022-07-26T06:41:57.223Z,94414.97
2022-07-26T06:42:54.167Z,94454.25
2022-07-26T06:43:50.890Z,94456.94
2022-07-26T06:44:47.592Z,94383.91
2022-07-26T06:45:44.370Z,94474.47
2022-07-26T06:46:41.267Z,94447.94
2022-07-26T06:47:38.091Z,94476.38
2022-07-26T06:48:35.725Z,94470.22
2022-07-26T06:49:32.842Z,94457.66
2022-07-26T06:50:29.966Z,94438.97
2022-07-26T06:51:26.683Z,94321.09
2022-07-26T06:52:23.415Z,94466.06
2022-07-26T06:53:20.167Z,94436.41
2022-07-26T06:54:17.072Z,94477.16
2022-07-26T06:55:14.618Z,94479.25
2022-07-26T06:56:13.380Z,94435.63
2022-07-26T06:57:10.139Z,94466.06
2022-07-26T06:58:07.038Z,94335.97
2022-07-26T06:59:09.026Z,94464.19
2022-07-26T07:00:09.482Z,94426.28
2022-07-26T07:01:06.418Z,94473.84
2022-07-26T07:02:04.168Z,94441.97
2022-07-26T07:03:01.166Z,94436.75
2022-07-26T07:03:58.443Z,94391.06
2022-07-26T07:04:55.289Z,94448.81
2022-07-26T07:05:52.135Z,94478.44
2022-07-26T07:06:49.611Z,94482.25
2022-07-26T07:07:46.479Z,94479.56
2022-07-26T07:08:43.183Z,94380.81
2022-07-26T07:09:41.651Z,94371.44
2022-07-26T07:10:39.104Z,94480.03
2022-07-26T07:11:35.883Z,94431.06
2022-07-26T07:12:32.700Z,94473.50
2022-07-26T07:13:29.418Z,94469.22
2022-07-26T07:14:26.138Z,94474.78
2022-07-26T07:15:22.918Z,94472.28
2022-07-26T07:16:19.779Z,94455.78
2022-07-26T07:17:20.490Z,94437.38
2022-07-26T07:18:17.515Z,94463.38
2022-07-26T07:19:14.263Z,94428.97
2022-07-26T07:20:11.620Z,94456.19
2022-07-26T07:21:08.467Z,94416.13
2022-07-26T07:22:05.929Z,94467.19
2022-07-26T07:23:02.701Z,94447.81
2022-07-26T07:24:00.227Z,94348.28
2022-07-26T07:24:58.884Z,94359.41
2022-07-26T07:25:55.617Z,94377.66
2022-07-26T07:26:52.844Z,94479.03
2022-07-26T07:27:49.639Z,94462.28
2022-07-26T07:28:46.462Z,94474.28
2022-07-26T07:29:45.353Z,94336.59
2022-07-26T07:30:42.150Z,94392.94
2022-07-26T07:31:48.321Z,94475.06
2022-07-26T07:32:46.270Z,94343.16
2022-07-26T07:33:52.874Z,94447.34
2022-07-26T07:34:50.695Z,94468.69
2022-07-26T07:35:47.479Z,94424.81
2022-07-26T07:36:44.427Z,94367.16
2022-07-26T07:37:53.726Z,94451.19
2022-07-26T07:38:50.840Z,94478.75
2022-07-26T07:39:50.221Z,94423.84
2022-07-26T07:40:47.572Z,94471.28
2022-07-26T07:41:48.817Z,94470.53
2022-07-26T07:42:45.565Z,94434.16
2022-07-26T07:43:42.359Z,94319.31
2022-07-26T07:44:39.201Z,94445.28
2022-07-26T07:45:36.033Z,94453.19
2022-07-26T07:46:34.297Z,94419.13
2022-07-26T07:47:33.819Z,94410.91
2022-07-26T07:48:30.852Z,94351.66
2022-07-26T07:49:27.654Z,94348.22
2022-07-26T07:50:27.171Z,94440.81
2022-07-26T07:51:26.552Z,94454.47
2022-07-26T07:52:23.334Z,94423.22
2022-07-26T07:53:20.078Z,94455.94
2022-07-26T07:54:18.431Z,94426.41
2022-07-26T07:55:36.931Z,94432.31
2022-07-26T07:56:32.022Z,94447.59
2022-07-26T07:57:28.779Z,94450.56
2022-07-26T07:58:28.122Z,94452.09
2022-07-26T07:59:25.601Z,94459.94
2022-07-26T08:00:26.909Z,94355.72
2022-07-26T08:01:24.368Z,94463.03
2022-07-26T08:02:36.644Z,94454.88
2022-07-26T08:03:38.731Z,94459.53
2022-07-26T08:04:36.191Z,94449.78
2022-07-26T08:05:33.103Z,94437.50
2022-07-26T08:06:30.007Z,94322.31
2022-07-26T08:07:33.050Z,94446.75
2022-07-26T08:08:33.222Z,94340.97
2022-07-26T08:09:29.971Z,94444.38
2022-07-26T08:10:31.008Z,94339.97
2022-07-26T08:11:29.902Z,94363.13
2022-07-26T08:12:26.922Z,94439.56
2022-07-26T08:13:23.966Z,94447.44
2022-07-26T08:14:20.786Z,94439.63
2022-07-26T08:15:17.674Z,94402.16
2022-07-26T08:16:16.369Z,94436.72
2022-07-26T08:17:13.171Z,94438.97
2022-07-26T08:18:09.920Z,94403.19
2022-07-26T08:19:11.557Z,94308.53
2022-07-26T08:20:12.916Z,94423.31
2022-07-26T08:21:12.647Z,94424.53
2022-07-26T08:22:11.462Z,94308.75
2022-07-26T08:23:08.508Z,94419.69
2022-07-26T08:24:05.522Z,94400.38
2022-07-26T08:25:02.258Z,94235.47
2022-07-26T08:26:03.230Z,94439.44
2022-07-26T08:27:01.726Z,94433.31
2022-07-26T08:28:03.487Z,94421.34
2022-07-26T08:29:00.759Z,94311.44
2022-07-26T08:29:57.484Z,94426.56
2022-07-26T08:30:54.448Z,94294.22
2022-07-26T08:31:52.864Z,94311.03
2022-07-26T08:32:49.800Z,94316.06
2022-07-26T08:33:47.867Z,94321.50
2022-07-26T08:34:44.560Z,94299.38
2022-07-26T08:35:41.265Z,94385.19
2022-07-26T08:36:49.576Z,94303.97
2022-07-26T08:37:54.896Z,94385.72
2022-07-26T08:38:52.499Z,94320.03
2022-07-26T08:39:49.325Z,94424.22
2022-07-26T08:40:46.098Z,94416.81
2022-07-26T08:41:43.242Z,94286.72
2022-07-26T08:42:40.329Z,94311.16
2022-07-26T08:43:43.720Z,94421.94
2022-07-26T08:44:49.478Z,94373.31
2022-07-26T08:45:47.307Z,94313.25
2022-07-26T08:46:44.160Z,94395.31
2022-07-26T08:48:00.771Z,94336.25
2022-07-26T08:48:58.099Z,94427.16
2022-07-26T08:49:55.019Z,94441.06
2022-07-26T08:50:55.831Z,94380.44
2022-07-26T08:51:53.162Z,94385.81
2022-07-26T08:52:51.785Z,94409.81
2022-07-26T08:53:50.302Z,94416.19
2022-07-26T08:54:50.206Z,94402.06
2022-07-26T08:57:03.847Z,94423.09
2022-07-26T08:58:03.031Z,94410.06
2022-07-26T08:59:07.215Z,94380.38
2022-07-26T09:00:16.756Z,94404.00
2022-07-26T09:01:13.962Z,94426.34
2022-07-26T09:02:13.231Z,94417.78
2022-07-26T09:03:25.726Z,94416.28
2022-07-26T09:04:41.393Z,94423.66
2022-07-26T09:05:41.251Z,94425.78
2022-07-26T09:06:37.980Z,94388.00
2022-07-26T09:07:34.829Z,94377.91
2022-07-26T09:08:31.580Z,94391.72
2022-07-26T09:09:29.543Z,94332.19
2022-07-26T09:10:27.944Z,94371.22
2022-07-26T09:11:24.598Z,94418.38
2022-07-26T09:12:22.593Z,94426.00
2022-07-26T09:13:20.238Z,94386.66
2022-07-26T09:14:17.005Z,94383.84
2022-07-26T09:15:26.539Z,94415.53
2022-07-26T09:16:24.319Z,94422.72
2022-07-26T09:17:24.029Z,94379.50
2022-07-26T09:18:29.494Z,94392.91
2022-07-26T09:19:27.943Z,94411.41
2022-07-26T09:20:28.186Z,94426.91
2022-07-26T09:21:32.482Z,94401.78
2022-07-26T09:22:29.675Z,94426.16
2022-07-26T09:23:39.493Z,94394.66
2022-07-26T09:24:41.264Z,94351.53
2022-07-26T09:25:41.360Z,94401.13
2022-07-26T09:26:38.984Z,94397.03
2022-07-26T09:27:36.911Z,94290.56
2022-07-26T09:28:33.736Z,94412.69
2022-07-26T09:29:30.858Z,94340.94
2022-07-26T09:30:31.094Z,94399.91
2022-07-26T09:31:27.911Z,94402.53
2022-07-26T09:32:26.483Z,94309.63
2022-07-26T09:33:24.474Z,94391.59
2022-07-26T09:34:26.815Z,94299.16
2022-07-26T09:35:49.635Z,94408.50
2022-07-26T09:36:58.154Z,94382.69
2022-07-26T09:37:56.202Z,94391.91
2022-07-26T09:39:00.310Z,94400.94
2022-07-26T09:40:01.143Z,94391.44
2022-07-26T09:40:57.959Z,94404.84
2022-07-26T09:42:17.577Z,94392.69
2022-07-26T09:43:16.405Z,94383.63
2022-07-26T09:44:27.036Z,94336.56
2022-07-26T09:45:25.606Z,94398.69
2022-07-26T09:46:26.159Z,94352.41
2022-07-26T09:47:34.773Z,94387.50
2022-07-26T09:48:52.128Z,94385.50
2022-07-26T09:49:48.836Z,94359.50
2022-07-26T09:50:48.764Z,94396.91
2022-07-26T09:51:50.780Z,94339.31
2022-07-26T09:53:10.053Z,94387.09
2022-07-26T09:54:07.939Z,94375.06
2022-07-26T09:55:08.260Z,94374.72
2022-07-26T09:56:05.238Z,94382.16
2022-07-26T09:57:03.293Z,94365.66
2022-07-26T09:58:03.632Z,94348.47
2022-07-26T09:59:00.967Z,94342.75
2022-07-26T09:59:57.923Z,94372.22
2022-07-26T10:01:00.455Z,94276.84
2022-07-26T10:02:00.645Z,94318.25
2022-07-26T10:02:58.478Z,94384.16
2022-07-26T10:03:55.260Z,94368.69
2022-07-26T10:04:51.991Z,94377.47
2022-07-26T10:05:48.840Z,94373.41
2022-07-26T10:06:46.001Z,94359.94
2022-07-26T10:07:43.203Z,94326.88
2022-07-26T10:08:40.433Z,94385.16
2022-07-26T10:10:00.271Z,94382.06
2022-07-26T10:11:09.477Z,94375.50
2022-07-26T10:12:09.176Z,94336.94
2022-07-26T10:13:08.555Z,94386.19
2022-07-26T10:14:34.382Z,94375.53
2022-07-26T10:15:47.317Z,94376.22
2022-07-26T10:16:44.184Z,94367.25
2022-07-26T10:17:42.652Z,94379.78
2022-07-26T10:18:39.432Z,94368.47
2022-07-26T10:19:45.554Z,94362.25
2022-07-26T10:20:45.955Z,94369.88
2022-07-26T10:21:43.727Z,94323.78
2022-07-26T10:22:40.534Z,94364.19
2022-07-26T10:23:40.745Z,94343.66
2022-07-26T10:24:41.309Z,94289.84
2022-07-26T10:25:38.066Z,94367.50
2022-07-26T10:26:36.996Z,94272.56
2022-07-26T10:27:38.296Z,94368.28
2022-07-26T10:28:37.569Z,94350.19
2022-07-26T10:29:34.285Z,94371.63
2022-07-26T10:30:35.345Z,94355.38
2022-07-26T10:31:32.565Z,94344.75
2022-07-26T10:32:33.245Z,94330.97
2022-07-26T10:33:44.646Z,94361.47
2022-07-26T10:34:41.912Z,94362.94
2022-07-26T10:35:42.054Z,94366.69
2022-07-26T10:36:40.096Z,94358.19
2022-07-26T10:37:36.802Z,94348.53
2022-07-26T10:38:40.527Z,94356.84
2022-07-26T10:39:38.863Z,94359.13
2022-07-26T10:40:37.719Z,94350.03
2022-07-26T10:41:47.448Z,94268.34
2022-07-26T10:42:45.732Z,94188.00
2022-07-26T10:43:43.022Z,94350.75
2022-07-26T10:44:45.296Z,94346.09
2022-07-26T10:45:42.652Z,94345.47
2022-07-26T10:47:02.662Z,94349.34
2022-07-26T10:48:25.692Z,94333.16
2022-07-26T10:49:30.574Z,94357.91
2022-07-26T10:50:34.096Z,94353.31
2022-07-26T10:51:34.245Z,94319.53
2022-07-26T10:52:32.861Z,94314.81
2022-07-26T10:53:31.121Z,94338.22
2022-07-26T10:54:27.835Z,94236.09
2022-07-26T10:55:24.911Z,94226.06
2022-07-26T10:56:21.630Z,94228.22
2022-07-26T10:57:18.384Z,94334.38
2022-07-26T10:58:15.428Z,94326.63
2022-07-26T10:59:12.266Z,94307.22
2022-07-26T11:00:13.347Z,94335.72
2022-07-26T11:01:10.202Z,94329.22
2022-07-26T11:02:18.332Z,94299.59
2022-07-26T11:03:16.325Z,94282.81
2022-07-26T11:04:19.515Z,94285.38
2022-07-26T11:05:19.412Z,94322.91
2022-07-26T11:06:19.294Z,94309.88
2022-07-26T11:07:16.270Z,94318.28
2022-07-26T11:08:13.414Z,94319.19
2022-07-26T11:09:12.556Z,94305.50
2022-07-26T11:10:09.490Z,94258.44
2022-07-26T11:11:06.338Z,94308.09
2022-07-26T11:12:19.482Z,94252.41
2022-07-26T11:13:23.613Z,94310.41
2022-07-26T11:14:20.463Z,94314.31
2022-07-26T11:15:18.818Z,94263.34
2022-07-26T11:16:16.304Z,94308.69
2022-07-26T11:17:28.223Z,94295.91
2022-07-26T11:18:30.851Z,94209.63
2022-07-26T11:19:29.242Z,94306.31
2022-07-26T11:20:29.803Z,94194.16
2022-07-26T11:21:26.827Z,94253.94
2022-07-26T11:22:34.419Z,94216.34
2022-07-26T11:23:34.395Z,94208.63
2022-07-26T11:24:31.986Z,94266.72
2022-07-26T11:25:29.139Z,94302.25
2022-07-26T11:26:26.120Z,94288.63
2022-07-26T11:27:22.922Z,94285.19
2022-07-26T11:28:21.305Z,94289.06
2022-07-26T11:29:38.716Z,94294.50